createdAt,value
2017-07-17T00:00:27.763Z,1015.8
2017-07-17T00:01:08.653Z,1015.8
2017-07-17T00:01:49.546Z,1015.77
2017-07-17T00:02:30.426Z,1015.79
2017-07-17T00:03:11.322Z,1015.78
2017-07-17T00:03:52.237Z,1015.77
2017-07-17T00:04:33.133Z,1015.78
2017-07-17T00:05:14.017Z,1015.72
2017-07-17T00:05:54.919Z,1015.75
2017-07-17T00:06:35.809Z,1015.8
2017-07-17T00:07:16.695Z,1015.75
2017-07-17T00:07:57.598Z,1015.77
2017-07-17T00:08:38.500Z,1015.76
2017-07-17T00:09:19.389Z,1015.77
2017-07-17T00:10:00.280Z,1015.74
2017-07-17T00:10:41.160Z,1015.75
2017-07-17T00:11:22.064Z,1015.75
2017-07-17T00:12:02.949Z,1015.76
2017-07-17T00:12:43.841Z,1015.76
2017-07-17T00:13:24.734Z,1015.77
2017-07-17T00:14:05.615Z,1015.76
2017-07-17T00:14:46.515Z,1015.75
2017-07-17T00:15:27.410Z,1015.73
2017-07-17T00:16:08.301Z,1015.72
2017-07-17T00:16:49.171Z,1015.69
2017-07-17T00:17:30.067Z,1015.76
2017-07-17T00:18:10.965Z,1015.71
2017-07-17T00:18:51.851Z,1015.73
2017-07-17T00:19:32.740Z,1015.75
2017-07-17T00:20:13.636Z,1015.71
2017-07-17T00:20:54.516Z,1015.72
2017-07-17T00:21:35.404Z,1015.73
2017-07-17T00:22:16.326Z,1015.71
2017-07-17T00:22:57.213Z,1015.68
2017-07-17T00:23:38.115Z,1015.71
2017-07-17T00:24:18.997Z,1015.68
2017-07-17T00:24:59.873Z,1015.64
2017-07-17T00:25:40.768Z,1015.65
2017-07-17T00:26:21.672Z,1015.69
2017-07-17T00:27:02.548Z,1015.68
2017-07-17T00:27:43.432Z,1015.68
2017-07-17T00:28:24.326Z,1015.68
2017-07-17T00:29:05.211Z,1015.68
2017-07-17T00:29:46.099Z,1015.68
2017-07-17T00:30:27.005Z,1015.68
2017-07-17T00:31:07.889Z,1015.72
2017-07-17T00:31:48.764Z,1015.7
2017-07-17T00:32:29.679Z,1015.67
2017-07-17T00:33:10.574Z,1015.67
2017-07-17T00:33:51.440Z,1015.68
2017-07-17T00:34:32.336Z,1015.68
2017-07-17T00:35:13.219Z,1015.65
2017-07-17T00:35:54.105Z,1015.67
2017-07-17T00:36:34.992Z,1015.67
2017-07-17T00:37:15.878Z,1015.65
2017-07-17T00:37:56.772Z,1015.66
2017-07-17T00:38:37.646Z,1015.63
2017-07-17T00:39:18.532Z,1015.64
2017-07-17T00:39:59.428Z,1015.64
2017-07-17T00:40:40.312Z,1015.63
2017-07-17T00:41:21.210Z,1015.68
2017-07-17T00:42:02.104Z,1015.68
2017-07-17T00:42:42.995Z,1015.66
2017-07-17T00:43:23.902Z,1015.66
2017-07-17T00:44:04.815Z,1015.69
2017-07-17T00:44:45.682Z,1015.69
2017-07-17T00:45:26.573Z,1015.67
2017-07-17T00:46:07.462Z,1015.68
2017-07-17T00:46:48.353Z,1015.66
2017-07-17T00:47:29.232Z,1015.68
2017-07-17T00:48:10.127Z,1015.7
2017-07-17T00:48:51.013Z,1015.68
2017-07-17T00:49:31.900Z,1015.66
2017-07-17T00:50:12.806Z,1015.66
2017-07-17T00:50:53.694Z,1015.75
2017-07-17T00:51:34.580Z,1015.7
2017-07-17T00:52:15.477Z,1015.7
2017-07-17T00:52:56.391Z,1015.72
2017-07-17T00:53:37.312Z,1015.71
2017-07-17T00:54:18.197Z,1015.73
2017-07-17T00:54:59.092Z,1015.73
2017-07-17T00:55:39.984Z,1015.77
2017-07-17T00:56:20.876Z,1015.78
2017-07-17T00:57:01.758Z,1015.73
2017-07-17T00:57:42.660Z,1015.77
2017-07-17T00:58:23.557Z,1015.73
2017-07-17T00:59:04.462Z,1015.79
2017-07-17T00:59:45.346Z,1015.74
2017-07-17T01:00:26.247Z,1015.74
2017-07-17T01:01:07.137Z,1015.73
2017-07-17T01:01:48.032Z,1015.74
2017-07-17T01:02:28.912Z,1015.7
2017-07-17T01:03:09.810Z,1015.69
2017-07-17T01:03:50.703Z,1015.73
2017-07-17T01:04:31.584Z,1015.7
2017-07-17T01:05:12.503Z,1015.73
2017-07-17T01:05:53.399Z,1015.78
2017-07-17T01:06:34.294Z,1015.76
2017-07-17T01:07:15.170Z,1015.75
2017-07-17T01:07:56.061Z,1015.75
2017-07-17T01:08:36.960Z,1015.77
2017-07-17T01:09:17.853Z,1015.77
2017-07-17T01:09:58.744Z,1015.74
2017-07-17T01:10:39.656Z,1015.8
2017-07-17T01:11:20.548Z,1015.74
2017-07-17T01:12:01.438Z,1015.79
2017-07-17T01:12:42.329Z,1015.72
2017-07-17T01:13:23.212Z,1015.7
2017-07-17T01:14:04.099Z,1015.76
2017-07-17T01:15:43.523Z,1015.78
2017-07-17T01:16:24.402Z,1015.73
2017-07-17T01:17:05.296Z,1015.74
2017-07-17T01:17:46.178Z,1015.75
2017-07-17T01:18:27.075Z,1015.74
2017-07-17T01:19:07.981Z,1015.74
2017-07-17T01:19:48.859Z,1015.77
2017-07-17T01:20:29.752Z,1015.71
2017-07-17T01:21:10.640Z,1015.73
2017-07-17T01:21:51.532Z,1015.72
2017-07-17T01:22:32.416Z,1015.71
2017-07-17T01:23:13.307Z,1015.73
2017-07-17T01:23:54.207Z,1015.78
2017-07-17T01:24:35.079Z,1015.72
2017-07-17T01:25:15.973Z,1015.73
2017-07-17T01:25:56.866Z,1015.73
2017-07-17T01:26:37.755Z,1015.74
2017-07-17T01:27:18.642Z,1015.7
2017-07-17T01:27:59.528Z,1015.72
2017-07-17T01:28:40.415Z,1015.71
2017-07-17T01:29:21.314Z,1015.72
2017-07-17T01:30:02.229Z,1015.72
2017-07-17T01:30:43.120Z,1015.72
2017-07-17T01:31:24.013Z,1015.71
2017-07-17T01:32:04.902Z,1015.72
2017-07-17T01:32:45.793Z,1015.71
2017-07-17T01:33:26.696Z,1015.76
2017-07-17T01:34:07.587Z,1015.79
2017-07-17T01:34:48.473Z,1015.74
2017-07-17T01:35:29.358Z,1015.75
2017-07-17T01:36:10.246Z,1015.74
2017-07-17T01:36:51.134Z,1015.77
2017-07-17T01:37:32.032Z,1015.77
2017-07-17T01:38:12.920Z,1015.77
2017-07-17T01:38:53.812Z,1015.79
2017-07-17T01:39:34.695Z,1015.74
2017-07-17T01:40:15.586Z,1015.78
2017-07-17T01:40:56.469Z,1015.74
2017-07-17T01:41:37.372Z,1015.75
2017-07-17T01:42:18.270Z,1015.78
2017-07-17T01:42:59.157Z,1015.8
2017-07-17T01:43:40.061Z,1015.79
2017-07-17T01:44:20.937Z,1015.72
2017-07-17T01:45:01.831Z,1015.76
2017-07-17T01:45:42.736Z,1015.76
2017-07-17T01:46:23.635Z,1015.79
2017-07-17T01:47:04.521Z,1015.76
2017-07-17T01:47:45.413Z,1015.81
2017-07-17T01:48:26.314Z,1015.81
2017-07-17T01:49:07.197Z,1015.85
2017-07-17T01:49:48.092Z,1015.8
2017-07-17T01:50:28.978Z,1015.81
2017-07-17T01:51:09.876Z,1015.83
2017-07-17T01:51:50.764Z,1015.81
2017-07-17T01:52:31.676Z,1015.84
2017-07-17T01:53:12.555Z,1015.82
2017-07-17T01:53:53.456Z,1015.79
2017-07-17T01:54:34.342Z,1015.8
2017-07-17T01:55:15.244Z,1015.8
2017-07-17T01:55:56.132Z,1015.77
2017-07-17T01:56:37.029Z,1015.78
2017-07-17T01:57:17.917Z,1015.79
2017-07-17T01:57:58.812Z,1015.84
2017-07-17T01:58:39.695Z,1015.83
2017-07-17T01:59:20.591Z,1015.8
2017-07-17T02:00:01.483Z,1015.81
2017-07-17T02:00:42.379Z,1015.82
2017-07-17T02:01:23.282Z,1015.79
2017-07-17T02:02:04.184Z,1015.81
2017-07-17T02:02:45.067Z,1015.74
2017-07-17T02:03:25.959Z,1015.78
2017-07-17T02:04:06.852Z,1015.78
2017-07-17T02:04:47.734Z,1015.74
2017-07-17T02:05:28.623Z,1015.77
2017-07-17T02:06:09.509Z,1015.74
2017-07-17T02:06:50.398Z,1015.79
2017-07-17T02:07:31.295Z,1015.77
2017-07-17T02:08:12.187Z,1015.8
2017-07-17T02:08:53.077Z,1015.84
2017-07-17T02:09:33.962Z,1015.8
2017-07-17T02:10:14.853Z,1015.79
2017-07-17T02:10:55.747Z,1015.8
2017-07-17T02:11:36.629Z,1015.8
2017-07-17T02:12:17.524Z,1015.76
2017-07-17T02:12:58.439Z,1015.75
2017-07-17T02:13:39.316Z,1015.8
2017-07-17T02:14:20.211Z,1015.83
2017-07-17T02:15:01.101Z,1015.81
2017-07-17T02:15:41.983Z,1015.81
2017-07-17T02:16:22.884Z,1015.8
2017-07-17T02:17:03.772Z,1015.83
2017-07-17T02:17:44.653Z,1015.83
2017-07-17T02:18:25.547Z,1015.82
2017-07-17T02:19:06.450Z,1015.82
2017-07-17T02:19:47.339Z,1015.86
2017-07-17T02:20:28.223Z,1015.86
2017-07-17T02:21:09.113Z,1015.83
2017-07-17T02:21:49.995Z,1015.88
2017-07-17T02:22:30.881Z,1015.87
2017-07-17T02:23:11.803Z,1015.84
2017-07-17T02:23:52.679Z,1015.84
2017-07-17T02:24:33.556Z,1015.82
2017-07-17T02:25:14.447Z,1015.85
2017-07-17T02:25:55.351Z,1015.81
2017-07-17T02:26:36.239Z,1015.82
2017-07-17T02:27:17.129Z,1015.85
2017-07-17T02:27:58.023Z,1015.81
2017-07-17T02:28:38.911Z,1015.85
2017-07-17T02:29:19.795Z,1015.86
2017-07-17T02:30:00.683Z,1015.85
2017-07-17T02:30:41.574Z,1015.8
2017-07-17T02:31:22.464Z,1015.9
2017-07-17T02:32:03.352Z,1015.86
2017-07-17T02:32:44.240Z,1015.91
2017-07-17T02:33:25.134Z,1015.92
2017-07-17T02:34:06.026Z,1015.96
2017-07-17T02:34:46.921Z,1015.95
2017-07-17T02:35:27.811Z,1015.96
2017-07-17T02:36:08.704Z,1015.92
2017-07-17T02:36:49.598Z,1015.95
2017-07-17T02:37:30.492Z,1015.99
2017-07-17T02:38:11.384Z,1016.01
2017-07-17T02:38:52.277Z,1015.97
2017-07-17T02:39:33.187Z,1015.98
2017-07-17T02:40:14.063Z,1015.98
2017-07-17T02:40:54.942Z,1016.01
2017-07-17T02:41:35.843Z,1016.03
2017-07-17T02:42:16.723Z,1015.98
2017-07-17T02:42:57.607Z,1015.98
2017-07-17T02:43:38.497Z,1015.98
2017-07-17T02:44:19.387Z,1015.95
2017-07-17T02:45:00.282Z,1015.98
2017-07-17T02:45:41.148Z,1016.01
2017-07-17T02:46:22.044Z,1015.98
2017-07-17T02:47:02.932Z,1015.99
2017-07-17T02:47:43.814Z,1015.98
2017-07-17T02:48:24.702Z,1015.95
2017-07-17T02:49:05.595Z,1015.99
2017-07-17T02:49:46.482Z,1015.94
2017-07-17T02:50:27.364Z,1016.01
2017-07-17T02:51:08.252Z,1016.04
2017-07-17T02:51:49.154Z,1015.98
2017-07-17T02:52:30.042Z,1016
2017-07-17T02:53:10.939Z,1016.04
2017-07-17T02:53:51.857Z,1016.06
2017-07-17T02:54:32.750Z,1016.07
2017-07-17T02:55:13.634Z,1016.08
2017-07-17T02:55:54.526Z,1016.08
2017-07-17T02:56:35.427Z,1016.09
2017-07-17T02:57:16.325Z,1016.06
2017-07-17T02:57:57.212Z,1016.13
2017-07-17T02:58:38.108Z,1016.12
2017-07-17T02:59:18.990Z,1016.15
2017-07-17T02:59:59.879Z,1016.14
2017-07-17T03:01:59.660Z,1016.12
2017-07-17T03:02:40.538Z,1016.14
2017-07-17T03:03:21.436Z,1016.11
2017-07-17T03:04:02.333Z,1016.04
2017-07-17T03:04:43.213Z,1016.06
2017-07-17T03:05:24.101Z,1016.07
2017-07-17T03:06:04.991Z,1016.09
2017-07-17T03:06:45.876Z,1016.12
2017-07-17T03:07:26.771Z,1016.12
2017-07-17T03:08:07.666Z,1016.12
2017-07-17T03:08:48.554Z,1016.11
2017-07-17T03:09:29.440Z,1016.11
2017-07-17T03:10:10.328Z,1016.13
2017-07-17T03:10:51.231Z,1016.08
2017-07-17T03:11:32.110Z,1016.1
2017-07-17T03:12:13.005Z,1016.11
2017-07-17T03:12:53.912Z,1016.13
2017-07-17T03:13:34.776Z,1016.1
2017-07-17T03:14:15.667Z,1016.13
2017-07-17T03:14:56.554Z,1016.12
2017-07-17T03:15:37.449Z,1016.11
2017-07-17T03:16:18.346Z,1016.11
2017-07-17T03:16:59.229Z,1016.12
2017-07-17T03:17:40.140Z,1016.12
2017-07-17T03:18:21.040Z,1016.08
2017-07-17T03:19:01.929Z,1016.14
2017-07-17T03:19:42.817Z,1016.14
2017-07-17T03:20:23.715Z,1016.17
2017-07-17T03:21:04.613Z,1016.2
2017-07-17T03:21:45.494Z,1016.18
2017-07-17T03:22:26.385Z,1016.22
2017-07-17T03:23:07.271Z,1016.21
2017-07-17T03:23:48.163Z,1016.16
2017-07-17T03:24:29.059Z,1016.2
2017-07-17T03:25:09.956Z,1016.23
2017-07-17T03:25:50.853Z,1016.22
2017-07-17T03:26:31.762Z,1016.19
2017-07-17T03:27:12.652Z,1016.23
2017-07-17T03:27:53.534Z,1016.22
2017-07-17T03:28:34.429Z,1016.25
2017-07-17T03:29:15.322Z,1016.23
2017-07-17T03:29:56.217Z,1016.24
2017-07-17T03:30:37.096Z,1016.27
2017-07-17T03:31:17.986Z,1016.25
2017-07-17T03:31:58.873Z,1016.3
2017-07-17T03:32:39.767Z,1016.28
2017-07-17T03:33:20.650Z,1016.3
2017-07-17T03:34:01.554Z,1016.28
2017-07-17T03:34:42.444Z,1016.26
2017-07-17T03:35:23.328Z,1016.3
2017-07-17T03:36:04.216Z,1016.27
2017-07-17T03:36:45.119Z,1016.22
2017-07-17T03:37:26.008Z,1016.28
2017-07-17T03:38:06.913Z,1016.32
2017-07-17T03:38:47.803Z,1016.3
2017-07-17T03:39:28.725Z,1016.3
2017-07-17T03:40:09.615Z,1016.3
2017-07-17T03:40:50.502Z,1016.32
2017-07-17T03:41:31.392Z,1016.32
2017-07-17T03:42:12.291Z,1016.34
2017-07-17T03:42:53.177Z,1016.34
2017-07-17T03:43:34.064Z,1016.29
2017-07-17T03:44:14.953Z,1016.32
2017-07-17T03:44:55.848Z,1016.3
2017-07-17T03:45:36.736Z,1016.33
2017-07-17T03:46:17.631Z,1016.33
2017-07-17T03:46:58.517Z,1016.36
2017-07-17T03:47:39.401Z,1016.34
2017-07-17T03:48:20.305Z,1016.35
2017-07-17T03:49:01.180Z,1016.39
2017-07-17T03:49:42.065Z,1016.37
2017-07-17T03:50:22.954Z,1016.35
2017-07-17T03:51:03.847Z,1016.39
2017-07-17T03:51:44.736Z,1016.35
2017-07-17T03:52:25.632Z,1016.34
2017-07-17T03:53:06.535Z,1016.36
2017-07-17T03:53:47.419Z,1016.35
2017-07-17T03:54:28.304Z,1016.37
2017-07-17T03:55:09.196Z,1016.4
2017-07-17T03:55:50.081Z,1016.39
2017-07-17T03:56:30.963Z,1016.36
2017-07-17T03:57:11.859Z,1016.4
2017-07-17T03:57:52.739Z,1016.41
2017-07-17T03:58:33.625Z,1016.4
2017-07-17T03:59:14.521Z,1016.4
2017-07-17T03:59:55.414Z,1016.42
2017-07-17T04:00:36.301Z,1016.41
2017-07-17T04:01:17.174Z,1016.42
2017-07-17T04:01:58.063Z,1016.43
2017-07-17T04:02:38.958Z,1016.43
2017-07-17T04:03:19.828Z,1016.45
2017-07-17T04:04:00.743Z,1016.49
2017-07-17T04:04:41.625Z,1016.47
2017-07-17T04:05:22.509Z,1016.57
2017-07-17T04:06:03.401Z,1016.5
2017-07-17T04:06:44.297Z,1016.5
2017-07-17T04:07:25.212Z,1016.54
2017-07-17T04:08:06.100Z,1016.52
2017-07-17T04:08:46.983Z,1016.53
2017-07-17T04:09:27.864Z,1016.54
2017-07-17T04:10:08.751Z,1016.57
2017-07-17T04:10:49.646Z,1016.55
2017-07-17T04:11:30.537Z,1016.49
2017-07-17T04:12:11.399Z,1016.5
2017-07-17T04:12:52.303Z,1016.52
2017-07-17T04:13:33.215Z,1016.5
2017-07-17T04:14:14.097Z,1016.51
2017-07-17T04:14:54.984Z,1016.49
2017-07-17T04:15:35.865Z,1016.48
2017-07-17T04:16:16.749Z,1016.54
2017-07-17T04:16:57.632Z,1016.58
2017-07-17T04:17:38.522Z,1016.54
2017-07-17T04:18:19.425Z,1016.57
2017-07-17T04:19:00.303Z,1016.56
2017-07-17T04:19:41.192Z,1016.58
2017-07-17T04:20:22.086Z,1016.59
2017-07-17T04:21:02.959Z,1016.64
2017-07-17T04:21:43.854Z,1016.66
2017-07-17T04:22:24.747Z,1016.6
2017-07-17T04:23:05.631Z,1016.6
2017-07-17T04:23:46.560Z,1016.62
2017-07-17T04:24:27.452Z,1016.65
2017-07-17T04:25:08.339Z,1016.65
2017-07-17T04:25:49.249Z,1016.64
2017-07-17T04:26:30.134Z,1016.63
2017-07-17T04:27:11.029Z,1016.69
2017-07-17T04:27:51.921Z,1016.65
2017-07-17T04:28:32.808Z,1016.65
2017-07-17T04:29:13.706Z,1016.68
2017-07-17T04:29:54.601Z,1016.63
2017-07-17T04:30:35.487Z,1016.67
2017-07-17T04:31:16.380Z,1016.66
2017-07-17T04:31:57.271Z,1016.68
2017-07-17T04:32:38.176Z,1016.68
2017-07-17T04:33:19.029Z,1016.69
2017-07-17T04:33:59.921Z,1016.68
2017-07-17T04:34:40.825Z,1016.7
2017-07-17T04:35:21.713Z,1016.74
2017-07-17T04:36:02.606Z,1016.73
2017-07-17T04:36:43.494Z,1016.75
2017-07-17T04:37:24.380Z,1016.74
2017-07-17T04:38:05.264Z,1016.74
2017-07-17T04:38:46.162Z,1016.71
2017-07-17T04:39:27.051Z,1016.66
2017-07-17T04:40:07.943Z,1016.66
2017-07-17T04:40:48.837Z,1016.66
2017-07-17T04:41:29.729Z,1016.65
2017-07-17T04:42:10.611Z,1016.6
2017-07-17T04:42:51.507Z,1016.59
2017-07-17T04:43:32.400Z,1016.61
2017-07-17T04:44:13.277Z,1016.64
2017-07-17T04:44:54.178Z,1016.6
2017-07-17T04:45:35.084Z,1016.67
2017-07-17T04:46:15.973Z,1016.59
2017-07-17T04:46:56.864Z,1016.61
2017-07-17T04:47:37.752Z,1016.62
2017-07-17T04:48:18.643Z,1016.64
2017-07-17T04:48:59.536Z,1016.61
2017-07-17T04:49:40.426Z,1016.63
2017-07-17T04:50:21.320Z,1016.6
2017-07-17T04:51:02.206Z,1016.62
2017-07-17T04:51:43.101Z,1016.67
2017-07-17T04:52:23.997Z,1016.64
2017-07-17T04:53:04.891Z,1016.65
2017-07-17T04:53:45.786Z,1016.65
2017-07-17T04:54:26.688Z,1016.63
2017-07-17T04:55:07.573Z,1016.65
2017-07-17T04:55:48.463Z,1016.65
2017-07-17T04:56:29.355Z,1016.67
2017-07-17T04:57:10.242Z,1016.69
2017-07-17T04:57:51.128Z,1016.67
2017-07-17T04:58:32.023Z,1016.7
2017-07-17T04:59:12.917Z,1016.68
2017-07-17T04:59:53.809Z,1016.65
2017-07-17T05:00:34.697Z,1016.67
2017-07-17T05:01:15.595Z,1016.66
2017-07-17T05:01:56.487Z,1016.65
2017-07-17T05:02:37.412Z,1016.64
2017-07-17T05:03:18.324Z,1016.66
2017-07-17T05:03:59.214Z,1016.63
2017-07-17T05:04:40.107Z,1016.61
2017-07-17T05:05:20.981Z,1016.68
2017-07-17T05:06:01.868Z,1016.66
2017-07-17T05:06:42.760Z,1016.65
2017-07-17T05:07:23.651Z,1016.65
2017-07-17T05:08:04.544Z,1016.67
2017-07-17T05:08:45.442Z,1016.67
2017-07-17T05:09:26.326Z,1016.7
2017-07-17T05:10:07.229Z,1016.69
2017-07-17T05:10:48.119Z,1016.73
2017-07-17T05:11:29.004Z,1016.77
2017-07-17T05:12:09.902Z,1016.75
2017-07-17T05:12:50.790Z,1016.77
2017-07-17T05:13:31.682Z,1016.78
2017-07-17T05:14:12.565Z,1016.83
2017-07-17T05:14:53.454Z,1016.81
2017-07-17T05:15:34.355Z,1016.8
2017-07-17T05:16:15.227Z,1016.81
2017-07-17T05:16:56.125Z,1016.84
2017-07-17T05:17:37.029Z,1016.79
2017-07-17T05:18:17.911Z,1016.85
2017-07-17T05:18:58.789Z,1016.82
2017-07-17T05:19:39.690Z,1016.88
2017-07-17T05:20:20.595Z,1016.87
2017-07-17T05:21:01.480Z,1016.84
2017-07-17T05:21:42.373Z,1016.87
2017-07-17T05:22:23.256Z,1016.9
2017-07-17T05:23:04.149Z,1016.82
2017-07-17T05:23:45.041Z,1016.85
2017-07-17T05:24:25.925Z,1016.76
2017-07-17T05:25:06.814Z,1016.78
2017-07-17T05:25:47.705Z,1016.75
2017-07-17T05:26:28.588Z,1016.78
2017-07-17T05:27:09.482Z,1016.83
2017-07-17T05:27:50.371Z,1016.85
2017-07-17T05:28:31.254Z,1016.85
2017-07-17T05:29:12.142Z,1016.89
2017-07-17T05:29:53.037Z,1016.87
2017-07-17T05:30:33.927Z,1016.92
2017-07-17T05:31:14.824Z,1016.88
2017-07-17T05:31:55.709Z,1016.91
2017-07-17T05:32:36.593Z,1016.92
2017-07-17T05:33:17.489Z,1016.96
2017-07-17T05:33:58.369Z,1016.98
2017-07-17T05:34:39.259Z,1016.98
2017-07-17T05:35:20.209Z,1016.96
2017-07-17T05:36:01.053Z,1016.96
2017-07-17T05:36:41.962Z,1016.97
2017-07-17T05:37:22.856Z,1017.01
2017-07-17T05:38:03.740Z,1017.01
2017-07-17T05:38:44.639Z,1016.98
2017-07-17T05:39:25.509Z,1017.01
2017-07-17T05:40:06.394Z,1017.03
2017-07-17T05:40:47.284Z,1016.96
2017-07-17T05:41:28.171Z,1017.02
2017-07-17T05:42:09.053Z,1016.99
2017-07-17T05:42:49.952Z,1017.01
2017-07-17T05:43:30.846Z,1017.07
2017-07-17T05:44:11.744Z,1017.04
2017-07-17T05:44:52.639Z,1017.06
2017-07-17T05:45:33.517Z,1017.04
2017-07-17T05:46:14.401Z,1017.04
2017-07-17T05:46:55.285Z,1017.01
2017-07-17T05:47:36.172Z,1017
2017-07-17T05:48:17.061Z,1017.04
2017-07-17T05:48:57.942Z,1017.09
2017-07-17T05:49:38.829Z,1017.06
2017-07-17T05:50:19.728Z,1017.12
2017-07-17T05:51:00.618Z,1017.1
2017-07-17T05:51:41.504Z,1017.14
2017-07-17T05:52:22.399Z,1017.13
2017-07-17T05:53:03.292Z,1017.06
2017-07-17T05:53:44.201Z,1017.08
2017-07-17T05:54:25.114Z,1017.05
2017-07-17T05:55:06.012Z,1017.04
2017-07-17T05:55:46.904Z,1017.07
2017-07-17T05:56:27.792Z,1017.07
2017-07-17T05:58:26.928Z,1017.1
2017-07-17T05:59:07.816Z,1017.13
2017-07-17T05:59:48.706Z,1017.14
2017-07-17T06:00:29.593Z,1017.17
2017-07-17T06:01:10.483Z,1017.18
2017-07-17T06:01:51.382Z,1017.18
2017-07-17T06:02:32.279Z,1017.23
2017-07-17T06:03:13.170Z,1017.22
2017-07-17T06:03:54.047Z,1017.2
2017-07-17T06:04:34.942Z,1017.21
2017-07-17T06:05:15.839Z,1017.2
2017-07-17T06:05:56.725Z,1017.21
2017-07-17T06:06:37.615Z,1017.22
2017-07-17T06:07:18.513Z,1017.25
2017-07-17T06:07:59.401Z,1017.26
2017-07-17T06:08:40.286Z,1017.24
2017-07-17T06:09:21.213Z,1017.27
2017-07-17T06:10:02.044Z,1017.23
2017-07-17T06:10:42.939Z,1017.24
2017-07-17T06:11:23.845Z,1017.2
2017-07-17T06:12:04.734Z,1017.21
2017-07-17T06:12:45.611Z,1017.22
2017-07-17T06:13:26.502Z,1017.24
2017-07-17T06:14:07.395Z,1017.27
2017-07-17T06:14:48.285Z,1017.26
2017-07-17T06:15:29.180Z,1017.28
2017-07-17T06:16:10.084Z,1017.28
2017-07-17T06:16:50.966Z,1017.25
2017-07-17T06:17:31.858Z,1017.29
2017-07-17T06:18:12.748Z,1017.29
2017-07-17T06:18:53.690Z,1017.31
2017-07-17T06:19:34.538Z,1017.29
2017-07-17T06:20:15.423Z,1017.31
2017-07-17T06:20:56.317Z,1017.29
2017-07-17T06:21:37.212Z,1017.28
2017-07-17T06:22:18.113Z,1017.3
2017-07-17T06:22:59.005Z,1017.3
2017-07-17T06:23:39.896Z,1017.31
2017-07-17T06:24:20.790Z,1017.32
2017-07-17T06:25:01.682Z,1017.31
2017-07-17T06:25:42.584Z,1017.29
2017-07-17T06:26:23.468Z,1017.27
2017-07-17T06:27:04.363Z,1017.29
2017-07-17T06:27:45.262Z,1017.31
2017-07-17T06:28:26.147Z,1017.32
2017-07-17T06:29:07.032Z,1017.31
2017-07-17T06:29:47.916Z,1017.33
2017-07-17T06:30:28.804Z,1017.34
2017-07-17T06:31:09.723Z,1017.38
2017-07-17T06:31:50.614Z,1017.35
2017-07-17T06:32:31.499Z,1017.38
2017-07-17T06:33:12.383Z,1017.38
2017-07-17T06:33:53.273Z,1017.41
2017-07-17T06:34:34.168Z,1017.35
2017-07-17T06:35:15.062Z,1017.36
2017-07-17T06:35:55.963Z,1017.35
2017-07-17T06:36:36.844Z,1017.36
2017-07-17T06:37:17.741Z,1017.37
2017-07-17T06:37:58.633Z,1017.37
2017-07-17T06:38:39.522Z,1017.35
2017-07-17T06:39:20.426Z,1017.36
2017-07-17T06:40:01.318Z,1017.4
2017-07-17T06:40:42.215Z,1017.41
2017-07-17T06:41:23.109Z,1017.39
2017-07-17T06:42:04.000Z,1017.37
2017-07-17T06:42:44.889Z,1017.36
2017-07-17T06:43:25.774Z,1017.35
2017-07-17T06:44:06.668Z,1017.35
2017-07-17T06:44:47.566Z,1017.36
2017-07-17T06:45:28.457Z,1017.34
2017-07-17T06:46:09.341Z,1017.37
2017-07-17T06:46:50.238Z,1017.35
2017-07-17T06:47:31.127Z,1017.37
2017-07-17T06:48:12.032Z,1017.33
2017-07-17T06:48:52.920Z,1017.3
2017-07-17T06:49:33.860Z,1017.33
2017-07-17T06:50:14.748Z,1017.36
2017-07-17T06:50:55.645Z,1017.4
2017-07-17T06:51:36.536Z,1017.39
2017-07-17T06:52:17.427Z,1017.39
2017-07-17T06:52:58.320Z,1017.41
2017-07-17T06:53:39.211Z,1017.43
2017-07-17T06:54:20.106Z,1017.44
2017-07-17T06:55:00.999Z,1017.46
2017-07-17T06:55:41.890Z,1017.46
2017-07-17T06:56:22.819Z,1017.47
2017-07-17T06:57:03.691Z,1017.51
2017-07-17T06:57:44.579Z,1017.51
2017-07-17T06:58:25.473Z,1017.55
2017-07-17T06:59:06.378Z,1017.54
2017-07-17T06:59:47.278Z,1017.56
2017-07-17T07:00:28.172Z,1017.57
2017-07-17T07:01:09.059Z,1017.55
2017-07-17T07:01:49.952Z,1017.58
2017-07-17T07:02:30.841Z,1017.56
2017-07-17T07:03:11.740Z,1017.57
2017-07-17T07:03:52.647Z,1017.56
2017-07-17T07:04:33.552Z,1017.58
2017-07-17T07:05:14.444Z,1017.56
2017-07-17T07:05:55.341Z,1017.57
2017-07-17T07:06:36.267Z,1017.5
2017-07-17T07:07:17.158Z,1017.54
2017-07-17T07:07:58.069Z,1017.54
2017-07-17T07:08:38.954Z,1017.5
2017-07-17T07:09:19.852Z,1017.49
2017-07-17T07:10:00.750Z,1017.51
2017-07-17T07:10:41.646Z,1017.53
2017-07-17T07:11:22.621Z,1017.5
2017-07-17T07:12:03.528Z,1017.51
2017-07-17T07:12:44.434Z,1017.51
2017-07-17T07:13:25.338Z,1017.52
2017-07-17T07:14:06.241Z,1017.55
2017-07-17T07:14:47.154Z,1017.54
2017-07-17T07:15:28.053Z,1017.53
2017-07-17T07:16:08.954Z,1017.56
2017-07-17T07:16:49.859Z,1017.5
2017-07-17T07:17:30.767Z,1017.51
2017-07-17T07:18:11.661Z,1017.55
2017-07-17T07:20:11.459Z,1017.49
2017-07-17T07:20:52.401Z,1017.48
2017-07-17T07:21:33.301Z,1017.49
2017-07-17T07:22:14.213Z,1017.49
2017-07-17T07:22:55.124Z,1017.49
2017-07-17T07:23:36.031Z,1017.5
2017-07-17T07:24:16.933Z,1017.53
2017-07-17T07:24:57.861Z,1017.51
2017-07-17T07:25:38.754Z,1017.52
2017-07-17T07:26:19.645Z,1017.54
2017-07-17T07:27:00.534Z,1017.51
2017-07-17T07:27:41.433Z,1017.52
2017-07-17T07:28:22.330Z,1017.47
2017-07-17T07:29:03.234Z,1017.47
2017-07-17T07:29:44.137Z,1017.51
2017-07-17T07:30:25.029Z,1017.48
2017-07-17T07:31:05.952Z,1017.47
2017-07-17T07:31:46.849Z,1017.49
2017-07-17T07:32:27.752Z,1017.47
2017-07-17T07:33:08.658Z,1017.53
2017-07-17T07:33:49.551Z,1017.47
2017-07-17T07:34:30.451Z,1017.49
2017-07-17T07:35:11.362Z,1017.5
2017-07-17T07:35:52.248Z,1017.5
2017-07-17T07:36:33.212Z,1017.53
2017-07-17T07:37:14.105Z,1017.55
2017-07-17T07:37:55.007Z,1017.53
2017-07-17T07:38:35.933Z,1017.51
2017-07-17T07:39:16.825Z,1017.5
2017-07-17T07:39:57.715Z,1017.49
2017-07-17T07:40:38.622Z,1017.52
2017-07-17T07:41:19.520Z,1017.47
2017-07-17T07:42:00.408Z,1017.48
2017-07-17T07:42:41.312Z,1017.46
2017-07-17T07:43:22.211Z,1017.5
2017-07-17T07:44:03.114Z,1017.43
2017-07-17T07:44:44.011Z,1017.43
2017-07-17T07:45:24.933Z,1017.44
2017-07-17T07:46:05.820Z,1017.44
2017-07-17T07:46:46.708Z,1017.44
2017-07-17T07:47:27.622Z,1017.44
2017-07-17T07:48:08.509Z,1017.48
2017-07-17T07:48:49.407Z,1017.45
2017-07-17T07:49:30.301Z,1017.49
2017-07-17T07:50:11.232Z,1017.53
2017-07-17T07:50:52.132Z,1017.53
2017-07-17T07:51:33.023Z,1017.52
2017-07-17T07:52:13.929Z,1017.58
2017-07-17T07:52:54.914Z,1017.54
2017-07-17T07:53:35.805Z,1017.56
2017-07-17T07:54:16.708Z,1017.57
2017-07-17T07:54:57.623Z,1017.57
2017-07-17T07:55:38.527Z,1017.58
2017-07-17T07:56:19.408Z,1017.61
2017-07-17T07:57:00.290Z,1017.63
2017-07-17T07:57:41.204Z,1017.63
2017-07-17T07:58:22.107Z,1017.64
2017-07-17T07:59:03.010Z,1017.62
2017-07-17T07:59:43.906Z,1017.62
2017-07-17T08:00:24.801Z,1017.58
2017-07-17T08:01:05.691Z,1017.59
2017-07-17T08:01:46.583Z,1017.62
2017-07-17T08:02:27.483Z,1017.61
2017-07-17T08:03:08.393Z,1017.62
2017-07-17T08:03:49.286Z,1017.58
2017-07-17T08:04:30.190Z,1017.51
2017-07-17T08:05:11.080Z,1017.54
2017-07-17T08:05:51.976Z,1017.53
2017-07-17T08:06:32.875Z,1017.52
2017-07-17T08:07:13.777Z,1017.49
2017-07-17T08:07:54.714Z,1017.51
2017-07-17T08:08:35.608Z,1017.52
2017-07-17T08:09:16.525Z,1017.48
2017-07-17T08:09:57.418Z,1017.52
2017-07-17T08:10:38.319Z,1017.48
2017-07-17T08:11:19.221Z,1017.54
2017-07-17T08:12:00.125Z,1017.58
2017-07-17T08:12:41.021Z,1017.57
2017-07-17T08:13:21.927Z,1017.58
2017-07-17T08:14:02.832Z,1017.61
2017-07-17T08:14:43.727Z,1017.62
2017-07-17T08:15:24.625Z,1017.59
2017-07-17T08:16:05.530Z,1017.63
2017-07-17T08:16:46.441Z,1017.63
2017-07-17T08:17:27.341Z,1017.6
2017-07-17T08:18:08.241Z,1017.62
2017-07-17T08:18:49.137Z,1017.56
2017-07-17T08:19:30.030Z,1017.58
2017-07-17T08:20:10.930Z,1017.57
2017-07-17T08:20:51.833Z,1017.56
2017-07-17T08:21:32.730Z,1017.61